Time;durP1;ratioP1;P1;durP2;ratioP2;P2;SDS_P1;SDS_P2;PMS_P1;PMS_P2;Temp;Humidity;BMP_temperature;BMP_pressure;BME280_temperature;BME280_humidity;BME280_pressure;Samples;Min_cycle;Max_cycle;Signal;HPM_P1;HPM_P2
2024/02/10 00:00:32;;;;;;;11.52;7.22;;;;;;;;;;5050992;28;20044;-60
2024/02/10 00:03:02;;;;;;;10.68;7.00;;;;;;;;;;5049404;28;20064;-60
2024/02/10 00:05:29;;;;;;;13.88;7.20;;;;;;;;;;5047645;28;20045;-62
2024/02/10 00:07:57;;;;;;;13.63;7.60;;;;;;;;;;5037193;28;20053;-63
2024/02/10 00:10:27;;;;;;;13.18;7.50;;;;;;;;;;5037934;28;20053;-63
2024/02/10 00:12:54;;;;;;;;;;;;;;;;;;5049445;28;20048;-62
2024/02/10 00:15:21;;;;;;;10.95;7.30;;;;;;;;;;5052744;28;19921;-63
2024/02/10 00:17:48;;;;;;;13.88;8.52;;;;;;;;;;5052323;28;20424;-62
2024/02/10 00:20:15;;;;;;;11.07;6.57;;;;;;;;;;5052805;28;20061;-62
2024/02/10 00:22:43;;;;;;;11.48;7.30;;;;;;;;;;5052716;28;20049;-63
2024/02/10 00:25:11;;;;;;;11.15;5.72;;;;;;;;;;5052738;28;20055;-63
2024/02/10 00:27:40;;;;;;;10.00;6.40;;;;;;;;;;5040344;28;20424;-62
2024/02/10 00:30:08;;;;;;;8.20;5.78;;;;;;;;;;5034620;28;20057;-62
2024/02/10 00:32:37;;;;;;;8.18;6.03;;;;;;;;;;5034534;28;20053;-62
2024/02/10 00:35:04;;;;;;;9.45;6.38;;;;;;;;;;5034701;28;20049;-62
2024/02/10 00:37:31;;;;;;;7.45;5.93;;;;;;;;;;5034008;28;20080;-62
2024/02/10 00:40:01;;;;;;;6.43;4.75;;;;;;;;;;5034718;28;20484;-62
2024/02/10 00:42:29;;;;;;;6.60;5.55;;;;;;;;;;5035125;28;20049;-62
2024/02/10 00:44:59;;;;;;;7.82;5.20;;;;;;;;;;5034003;28;20058;-62
2024/02/10 00:47:28;;;;;;;5.55;4.68;;;;;;;;;;5034442;28;20053;-62
2024/02/10 00:49:57;;;;;;;6.13;4.40;;;;;;;;;;5034526;28;20064;-62
2024/02/10 00:52:24;;;;;;;5.22;3.65;;;;;;;;;;5034151;28;20108;-62
2024/02/10 00:54:51;;;;;;;4.50;3.20;;;;;;;;;;5034163;28;20057;-62
2024/02/10 00:57:18;;;;;;;3.92;3.13;;;;;;;;;;5037818;28;20045;-61
2024/02/10 00:59:46;;;;;;;4.07;2.90;;;;;;;;;;5054266;28;20067;-61
2024/02/10 01:02:17;;;;;;;4.28;2.92;;;;;;;;;;5053626;28;20049;-61
2024/02/10 01:04:44;;;;;;;4.05;2.67;;;;;;;;;;5054020;28;20451;-61
2024/02/10 01:07:14;;;;;;;3.53;2.67;;;;;;;;;;5053902;28;20060;-61
2024/02/10 01:09:41;;;;;;;3.45;2.33;;;;;;;;;;5054034;28;20079;-61
2024/02/10 01:12:07;;;;;;;2.60;2.28;;;;;;;;;;5052412;28;20503;-61
2024/02/10 01:14:36;;;;;;;4.05;1.92;;;;;;;;;;5046624;28;20143;-61
2024/02/10 01:17:10;;;;;;;4.33;2.43;;;;;;;;;;5053512;28;20064;-61
2024/02/10 01:19:37;;;;;;;2.55;2.17;;;;;;;;;;5053779;28;20160;-61
2024/02/10 01:22:05;;;;;;;2.95;1.95;;;;;;;;;;5053654;28;20048;-61
2024/02/10 01:24:32;;;;;;;3.40;2.00;;;;;;;;;;5053832;28;20049;-61
2024/02/10 01:26:59;;;;;;;2.83;2.03;;;;;;;;;;5053481;28;20053;-61
2024/02/10 01:29:26;;;;;;;4.00;1.85;;;;;;;;;;5051659;28;20053;-61
2024/02/10 01:31:53;;;;;;;4.00;2.00;;;;;;;;;;5053428;28;20488;-61
2024/02/10 01:34:21;;;;;;;3.38;1.90;;;;;;;;;;5053543;28;20064;-60
2024/02/10 01:36:47;;;;;;;3.00;1.70;;;;;;;;;;5053140;28;20060;-61
2024/02/10 01:39:14;;;;;;;2.13;1.60;;;;;;;;;;5051594;28;20060;-61
2024/02/10 01:41:41;;;;;;;2.53;1.67;;;;;;;;;;5045719;28;20045;-61
2024/02/10 01:44:08;;;;;;;2.47;1.73;;;;;;;;;;5033629;28;20049;-61
2024/02/10 01:46:35;;;;;;;3.22;1.90;;;;;;;;;;5032889;28;20053;-60
2024/02/10 01:49:02;;;;;;;3.45;1.77;;;;;;;;;;5033048;28;20049;-61
2024/02/10 01:51:31;;;;;;;2.20;1.70;;;;;;;;;;5032872;28;20061;-60
2024/02/10 01:53:58;;;;;;;2.97;2.00;;;;;;;;;;5032787;28;20058;-61
2024/02/10 01:56:28;;;;;;;4.63;1.98;;;;;;;;;;5031965;28;20049;-60
2024/02/10 01:58:56;;;;;;;2.40;1.70;;;;;;;;;;5033633;28;20053;-60
2024/02/10 02:01:23;;;;;;;2.20;1.90;;;;;;;;;;5033040;28;20056;-60
2024/02/10 02:03:50;;;;;;;3.78;2.03;;;;;;;;;;5032690;28;20057;-60
2024/02/10 02:06:18;;;;;;;3.00;1.90;;;;;;;;;;5032748;28;20166;-60
2024/02/10 02:08:46;;;;;;;2.42;1.80;;;;;;;;;;5032706;28;20061;-60
2024/02/10 02:11:13;;;;;;;3.20;1.83;;;;;;;;;;5032926;28;20064;-60
2024/02/10 02:13:41;;;;;;;2.05;1.70;;;;;;;;;;5037716;28;20056;-60
2024/02/10 02:16:11;;;;;;;2.95;1.75;;;;;;;;;;5052470;28;20064;-60
2024/02/10 02:18:38;;;;;;;2.65;1.80;;;;;;;;;;5052879;28;20067;-60
2024/02/10 02:21:06;;;;;;;2.90;1.70;;;;;;;;;;5052393;28;20060;-60
2024/02/10 02:23:34;;;;;;;3.45;1.90;;;;;;;;;;5052100;28;20519;-60
2024/02/10 02:26:01;;;;;;;3.80;1.73;;;;;;;;;;5052275;28;20053;-61
2024/02/10 02:28:28;;;;;;;4.15;1.80;;;;;;;;;;5050434;28;20057;-61
2024/02/10 02:30:55;;;;;;;3.17;2.00;;;;;;;;;;5052254;28;20056;-63
2024/02/10 02:33:22;;;;;;;2.25;1.60;;;;;;;;;;5052465;28;20053;-61
2024/02/10 02:35:50;;;;;;;3.50;1.60;;;;;;;;;;5052000;28;20057;-61
2024/02/10 02:38:17;;;;;;;3.38;1.70;;;;;;;;;;5036110;28;20053;-61
2024/02/10 02:40:45;;;;;;;3.65;1.50;;;;;;;;;;5032726;28;20060;-60
2024/02/10 02:43:13;;;;;;;2.75;1.77;;;;;;;;;;5032282;28;20069;-60
2024/02/10 02:45:42;;;;;;;2.88;1.48;;;;;;;;;;5049395;28;20053;-61
2024/02/10 02:48:10;;;;;;;;;;;;;;;;;;5052511;28;20076;-61
2024/02/10 02:50:37;;;;;;;1.75;1.30;;;;;;;;;;5052585;28;20370;-60
2024/02/10 02:53:05;;;;;;;3.33;1.60;;;;;;;;;;5051936;28;20049;-61
2024/02/10 02:55:32;;;;;;;3.03;1.70;;;;;;;;;;5038443;28;20064;-60
2024/02/10 02:58:02;;;;;;;1.65;1.30;;;;;;;;;;5032719;28;20057;-60
2024/02/10 03:00:31;;;;;;;2.28;1.45;;;;;;;;;;5032491;28;20054;-60
2024/02/10 03:03:02;;;;;;;2.13;1.48;;;;;;;;;;5031679;28;20050;-60
2024/02/10 03:05:29;;;;;;;2.90;1.38;;;;;;;;;;5032903;28;20060;-60
2024/02/10 03:07:56;;;;;;;1.75;1.20;;;;;;;;;;5032889;28;20057;-60
2024/02/10 03:10:23;;;;;;;3.38;1.17;;;;;;;;;;5036253;28;20049;-60
2024/02/10 03:12:49;;;;;;;1.75;1.10;;;;;;;;;;5035930;28;20046;-61
2024/02/10 03:15:18;;;;;;;2.05;1.20;;;;;;;;;;5044683;28;20048;-60
2024/02/10 03:17:46;;;;;;;2.33;1.13;;;;;;;;;;5055643;28;20429;-60
2024/02/10 03:20:13;;;;;;;2.17;1.27;;;;;;;;;;5056100;28;20423;-60
2024/02/10 03:22:40;;;;;;;2.55;1.13;;;;;;;;;;5055928;28;20053;-60
2024/02/10 03:25:06;;;;;;;1.60;1.00;;;;;;;;;;5056087;28;20053;-60
2024/02/10 03:27:33;;;;;;;2.00;1.20;;;;;;;;;;5055500;28;20068;-60
2024/02/10 03:30:00;;;;;;;1.92;1.00;;;;;;;;;;5049856;28;20053;-60
2024/02/10 03:32:32;;;;;;;1.98;1.15;;;;;;;;;;5035686;28;20054;-60
2024/02/10 03:34:59;;;;;;;1.50;1.00;;;;;;;;;;5035632;28;20049;-60
2024/02/10 03:37:28;;;;;;;1.98;1.35;;;;;;;;;;5035294;28;20496;-60
2024/02/10 03:39:57;;;;;;;2.47;1.00;;;;;;;;;;5035446;28;20076;-60
2024/02/10 03:42:24;;;;;;;2.70;1.38;;;;;;;;;;5035398;28;20072;-60
2024/02/10 03:44:52;;;;;;;1.42;1.00;;;;;;;;;;5035573;28;20495;-60
2024/02/10 03:47:19;;;;;;;1.70;1.10;;;;;;;;;;5035290;28;20060;-61
2024/02/10 03:49:47;;;;;;;2.05;1.25;;;;;;;;;;5035642;28;20068;-61
2024/02/10 03:52:15;;;;;;;1.60;1.00;;;;;;;;;;5035112;28;20436;-61
2024/02/10 03:54:42;;;;;;;1.70;1.10;;;;;;;;;;5042210;28;20494;-61
2024/02/10 03:57:09;;;;;;;2.42;1.35;;;;;;;;;;5055375;28;20056;-61
2024/02/10 03:59:39;;;;;;;2.70;1.38;;;;;;;;;;5051745;28;20057;-61
2024/02/10 04:02:06;;;;;;;2.40;1.30;;;;;;;;;;5034743;28;20053;-61
2024/02/10 04:04:34;;;;;;;1.92;1.50;;;;;;;;;;5034805;28;20100;-61
2024/02/10 04:07:02;;;;;;;1.90;1.13;;;;;;;;;;5033719;28;20080;-61
2024/02/10 04:09:29;;;;;;;1.90;1.40;;;;;;;;;;5034657;28;20053;-61
2024/02/10 04:11:57;;;;;;;2.00;1.17;;;;;;;;;;5034913;28;20057;-61
2024/02/10 04:14:24;;;;;;;2.40;1.40;;;;;;;;;;5034881;28;20058;-61
2024/02/10 04:16:52;;;;;;;3.10;1.35;;;;;;;;;;5037809;28;20048;-62
2024/02/10 04:19:19;;;;;;;2.85;1.70;;;;;;;;;;5053951;28;20048;-61
2024/02/10 04:21:50;;;;;;;3.28;1.80;;;;;;;;;;5054512;28;20060;-61
2024/02/10 04:24:19;;;;;;;2.55;1.70;;;;;;;;;;5054628;28;20051;-61
2024/02/10 04:26:45;;;;;;;2.50;1.75;;;;;;;;;;5054733;28;20056;-61
2024/02/10 04:29:14;;;;;;;2.70;1.90;;;;;;;;;;5054392;28;20075;-61
2024/02/10 04:31:41;;;;;;;2.10;1.70;;;;;;;;;;5039126;28;20053;-61
2024/02/10 04:34:08;;;;;;;2.97;2.00;;;;;;;;;;5034505;28;20057;-61
2024/02/10 04:36:35;;;;;;;4.25;1.80;;;;;;;;;;5034671;28;20053;-62
2024/02/10 04:39:03;;;;;;;2.45;1.90;;;;;;;;;;5034283;28;20053;-61
2024/02/10 04:41:32;;;;;;;2.30;1.90;;;;;;;;;;5034541;28;20054;-61
2024/02/10 04:43:59;;;;;;;3.47;2.00;;;;;;;;;;5034530;28;20050;-62
2024/02/10 04:46:25;;;;;;;3.17;1.95;;;;;;;;;;5033912;28;20488;-61
2024/02/10 04:48:53;;;;;;;3.80;1.80;;;;;;;;;;5034265;28;20049;-62
2024/02/10 04:51:24;;;;;;;2.40;1.60;;;;;;;;;;5034001;28;20060;-61
2024/02/10 04:53:51;;;;;;;4.07;1.98;;;;;;;;;;5033963;28;20476;-61
2024/02/10 04:56:18;;;;;;;2.08;1.35;;;;;;;;;;5033870;28;20068;-61
2024/02/10 04:58:48;;;;;;;2.40;1.30;;;;;;;;;;5034476;28;20057;-61
2024/02/10 05:01:19;;;;;;;2.38;1.35;;;;;;;;;;5040733;28;20550;-62
2024/02/10 05:03:46;;;;;;;2.15;1.52;;;;;;;;;;5053693;28;20056;-61
2024/02/10 05:06:13;;;;;;;2.00;1.20;;;;;;;;;;5053396;28;20064;-62
2024/02/10 05:08:40;;;;;;;1.90;1.38;;;;;;;;;;5033726;28;20064;-61
2024/02/10 05:11:07;;;;;;;3.22;1.50;;;;;;;;;;5034095;28;20049;-61
2024/02/10 05:13:34;;;;;;;2.28;1.48;;;;;;;;;;5033576;28;20050;-61
2024/02/10 05:16:02;;;;;;;1.65;1.20;;;;;;;;;;5032794;28;20050;-61
2024/02/10 05:18:30;;;;;;;2.05;1.63;;;;;;;;;;5033744;28;20061;-61
2024/02/10 05:20:57;;;;;;;2.53;2.00;;;;;;;;;;5033571;28;20053;-61
2024/02/10 05:23:24;;;;;;;2.60;1.77;;;;;;;;;;5033740;28;20053;-61
2024/02/10 05:25:51;;;;;;;3.22;1.90;;;;;;;;;;5033851;28;20054;-61
2024/02/10 05:28:19;;;;;;;2.97;1.80;;;;;;;;;;5033835;28;20053;-61
2024/02/10 05:30:45;;;;;;;2.72;1.73;;;;;;;;;;5033675;28;20409;-61
2024/02/10 05:33:18;;;;;;;2.80;2.00;;;;;;;;;;5051712;28;20053;-61
2024/02/10 05:35:46;;;;;;;2.05;1.80;;;;;;;;;;5053618;28;20072;-61
2024/02/10 05:38:16;;;;;;;2.50;1.98;;;;;;;;;;5053254;28;20057;-61
2024/02/10 05:40:43;;;;;;;;;;;;;;;;;;5053830;28;20060;-61
2024/02/10 05:43:10;;;;;;;3.53;2.20;;;;;;;;;;5052724;28;19921;-61
2024/02/10 05:45:38;;;;;;;2.70;2.15;;;;;;;;;;5053423;28;20045;-62
2024/02/10 05:48:05;;;;;;;3.40;2.60;;;;;;;;;;5051151;28;20412;-61
2024/02/10 05:50:35;;;;;;;3.45;2.17;;;;;;;;;;5052941;28;20060;-61
2024/02/10 05:53:02;;;;;;;;;;;;;;;;;;5053679;28;20389;-61
2024/02/10 05:55:29;;;;;;;2.35;1.92;;;;;;;;;;5053135;28;19920;-61
2024/02/10 05:57:58;;;;;;;2.33;2.13;;;;;;;;;;5053022;28;20052;-62
2024/02/10 06:00:25;;;;;;;2.80;2.28;;;;;;;;;;5053345;28;20061;-61
2024/02/10 06:02:53;;;;;;;2.85;2.08;;;;;;;;;;5039575;28;20080;-61
2024/02/10 06:05:20;;;;;;;3.30;2.25;;;;;;;;;;5033238;28;20066;-61
2024/02/10 06:07:49;;;;;;;4.28;2.40;;;;;;;;;;5033200;28;20053;-62
2024/02/10 06:10:16;;;;;;;3.75;2.42;;;;;;;;;;5033242;28;20061;-61
2024/02/10 06:12:45;;;;;;;3.60;2.13;;;;;;;;;;5032798;28;20053;-62
2024/02/10 06:15:13;;;;;;;4.57;2.70;;;;;;;;;;5032798;28;20049;-61
2024/02/10 06:17:40;;;;;;;3.90;3.13;;;;;;;;;;5033154;28;20049;-63
2024/02/10 06:20:12;;;;;;;2.97;2.45;;;;;;;;;;5032565;28;20052;-61
2024/02/10 06:22:39;;;;;;;3.80;3.40;;;;;;;;;;5033179;28;20428;-62
2024/02/10 06:25:10;;;;;;;3.88;2.60;;;;;;;;;;5032810;28;20049;-63
2024/02/10 06:27:37;;;;;;;4.53;3.20;;;;;;;;;;5032928;28;20050;-63
2024/02/10 06:30:04;;;;;;;3.60;2.95;;;;;;;;;;5033046;28;20065;-63
2024/02/10 06:32:36;;;;;;;4.20;2.90;;;;;;;;;;5033789;28;20049;-63
2024/02/10 06:35:03;;;;;;;4.93;3.13;;;;;;;;;;5032431;28;20056;-62
2024/02/10 06:37:32;;;;;;;3.40;2.60;;;;;;;;;;5032817;28;20543;-62
2024/02/10 06:39:59;;;;;;;5.60;3.30;;;;;;;;;;5032892;28;20492;-62
2024/02/10 06:42:34;;;;;;;3.80;2.70;;;;;;;;;;5032560;28;20049;-62
2024/02/10 06:45:01;;;;;;;3.60;3.17;;;;;;;;;;5037194;28;20053;-62
2024/02/10 06:47:28;;;;;;;4.45;3.45;;;;;;;;;;5038924;28;20496;-63
2024/02/10 06:49:56;;;;;;;6.75;3.63;;;;;;;;;;5056783;28;20053;-63
2024/02/10 06:52:22;;;;;;;4.38;3.78;;;;;;;;;;5056824;28;20056;-63
2024/02/10 06:54:51;;;;;;;5.07;3.90;;;;;;;;;;5050589;28;20447;-63
2024/02/10 06:57:18;;;;;;;4.93;4.43;;;;;;;;;;5036477;28;20057;-62
2024/02/10 06:59:47;;;;;;;5.07;4.00;;;;;;;;;;5036409;28;20060;-63
2024/02/10 07:02:15;;;;;;;4.15;3.53;;;;;;;;;;5036182;28;20053;-63
2024/02/10 07:04:41;;;;;;;4.07;3.42;;;;;;;;;;5037239;28;20052;-63
2024/02/10 07:07:10;;;;;;;5.88;3.95;;;;;;;;;;5035958;28;20064;-62
2024/02/10 07:09:37;;;;;;;5.25;3.50;;;;;;;;;;5036111;28;20054;-62
2024/02/10 07:12:05;;;;;;;4.32;3.58;;;;;;;;;;5035997;28;20049;-62
2024/02/10 07:14:33;;;;;;;4.78;3.63;;;;;;;;;;5035604;28;20052;-62
2024/02/10 07:17:04;;;;;;;3.97;3.50;;;;;;;;;;5035909;28;20091;-62
2024/02/10 07:19:31;;;;;;;4.65;3.50;;;;;;;;;;5036996;28;20056;-62
2024/02/10 07:21:59;;;;;;;5.68;3.42;;;;;;;;;;5036188;28;20058;-62
2024/02/10 07:24:26;;;;;;;4.75;3.15;;;;;;;;;;5035886;28;20045;-62
2024/02/10 07:26:56;;;;;;;5.15;3.60;;;;;;;;;;5036137;28;20049;-62
2024/02/10 07:29:23;;;;;;;3.47;3.00;;;;;;;;;;5038810;28;20504;-62
2024/02/10 07:31:50;;;;;;;3.50;3.05;;;;;;;;;;5035608;28;20416;-62
2024/02/10 07:34:18;;;;;;;3.78;2.40;;;;;;;;;;5051721;28;20049;-62
2024/02/10 07:36:51;;;;;;;2.65;2.20;;;;;;;;;;5054064;28;20049;-62
2024/02/10 07:39:24;;;;;;;3.10;2.40;;;;;;;;;;5051687;28;20056;-62
2024/02/10 07:41:51;;;;;;;3.30;2.80;;;;;;;;;;5044402;28;20413;-62
2024/02/10 07:44:18;;;;;;;4.07;3.08;;;;;;;;;;5055620;28;20049;-62
2024/02/10 07:46:45;;;;;;;3.83;3.13;;;;;;;;;;5040664;28;20489;-62
2024/02/10 07:49:13;;;;;;;4.40;3.25;;;;;;;;;;5047443;28;20055;-62
2024/02/10 07:51:46;;;;;;;3.80;2.70;;;;;;;;;;5053389;28;20252;-62
2024/02/10 07:54:13;;;;;;;2.70;2.38;;;;;;;;;;5038862;28;20052;-63
2024/02/10 07:56:41;;;;;;;3.00;2.47;;;;;;;;;;5055066;28;20049;-63
2024/02/10 07:59:08;;;;;;;2.83;2.10;;;;;;;;;;5055081;28;20056;-62
2024/02/10 08:01:35;;;;;;;3.55;2.10;;;;;;;;;;5041345;28;20488;-63
2024/02/10 08:04:09;;;;;;;2.50;1.90;;;;;;;;;;5049807;28;20392;-63
2024/02/10 08:06:37;;;;;;;2.63;2.05;;;;;;;;;;5041289;28;20060;-63
2024/02/10 08:09:07;;;;;;;6.20;4.55;;;;;;;;;;5041307;28;20049;-63
2024/02/10 08:11:34;;;;;;;4.85;1.90;;;;;;;;;;5040696;28;20140;-63
2024/02/10 08:14:01;;;;;;;2.00;1.50;;;;;;;;;;5041373;28;20053;-63
2024/02/10 08:16:28;;;;;;;2.22;1.38;;;;;;;;;;5047977;28;20500;-63
2024/02/10 08:18:55;;;;;;;2.00;1.45;;;;;;;;;;5041480;28;20051;-64
2024/02/10 08:21:24;;;;;;;2.80;1.25;;;;;;;;;;5048430;28;20072;-63
2024/02/10 08:23:52;;;;;;;3.10;1.20;;;;;;;;;;5034385;28;20053;-63
2024/02/10 08:26:20;;;;;;;1.70;1.30;;;;;;;;;;5038456;28;20060;-64
2024/02/10 08:28:50;;;;;;;3.53;1.33;;;;;;;;;;5037698;28;20054;-64
2024/02/10 08:31:18;;;;;;;1.55;1.20;;;;;;;;;;5034821;28;20056;-63
2024/02/10 08:33:47;;;;;;;1.92;1.20;;;;;;;;;;5038305;28;20065;-64
2024/02/10 08:36:16;;;;;;;1.67;1.00;;;;;;;;;;5045032;28;20045;-64
2024/02/10 08:38:43;;;;;;;2.17;1.00;;;;;;;;;;5034752;28;20057;-64
2024/02/10 08:41:10;;;;;;;1.55;1.00;;;;;;;;;;5035641;28;20054;-64
2024/02/10 08:43:38;;;;;;;1.98;1.05;;;;;;;;;;5046464;28;20049;-64
2024/02/10 08:46:07;;;;;;;1.58;1.00;;;;;;;;;;5036885;28;20060;-64
2024/02/10 08:48:33;;;;;;;1.50;0.90;;;;;;;;;;5039658;28;20052;-64
2024/02/10 08:51:00;;;;;;;1.67;1.10;;;;;;;;;;5054033;28;20063;-64
2024/02/10 08:53:30;;;;;;;1.50;0.90;;;;;;;;;;5051147;28;20053;-63
2024/02/10 08:55:57;;;;;;;1.95;1.00;;;;;;;;;;5035478;28;20045;-63
2024/02/10 08:58:25;;;;;;;1.92;1.02;;;;;;;;;;5036750;28;20060;-63
2024/02/10 09:00:57;;;;;;;1.42;0.90;;;;;;;;;;5040049;28;20053;-63
2024/02/10 09:03:24;;;;;;;1.48;0.90;;;;;;;;;;5034903;28;20057;-63
2024/02/10 09:05:51;;;;;;;1.95;1.02;;;;;;;;;;5033513;28;20405;-63
2024/02/10 09:08:18;;;;;;;1.80;0.88;;;;;;;;;;5033990;28;20054;-63
2024/02/10 09:10:45;;;;;;;1.83;1.00;;;;;;;;;;5051040;28;20071;-62
2024/02/10 09:13:12;;;;;;;1.15;0.80;;;;;;;;;;5050995;28;20060;-62
2024/02/10 09:15:39;;;;;;;1.55;0.85;;;;;;;;;;5034201;28;20050;-62
2024/02/10 09:18:07;;;;;;;2.25;0.93;;;;;;;;;;5033255;28;20045;-62
2024/02/10 09:20:34;;;;;;;1.13;0.75;;;;;;;;;;5047989;28;20484;-62
2024/02/10 09:23:03;;;;;;;2.08;1.00;;;;;;;;;;5051407;28;20067;-62
2024/02/10 09:25:29;;;;;;;1.77;0.80;;;;;;;;;;5053899;28;20051;-62
2024/02/10 09:27:59;;;;;;;1.58;0.77;;;;;;;;;;5053617;28;20071;-62
2024/02/10 09:30:26;;;;;;;1.60;0.70;;;;;;;;;;5053572;28;20417;-62
2024/02/10 09:32:53;;;;;;;1.08;0.63;;;;;;;;;;5053583;28;20053;-61
2024/02/10 09:35:23;;;;;;;1.13;0.70;;;;;;;;;;5038175;28;20045;-62
2024/02/10 09:37:51;;;;;;;1.25;0.80;;;;;;;;;;5034409;28;20056;-61
2024/02/10 09:40:19;;;;;;;1.85;0.70;;;;;;;;;;5033414;28;20480;-61
2024/02/10 09:42:49;;;;;;;1.25;0.73;;;;;;;;;;5033402;28;20053;-61
2024/02/10 09:45:16;;;;;;;1.38;0.80;;;;;;;;;;5048309;28;20135;-61
2024/02/10 09:47:43;;;;;;;1.00;0.68;;;;;;;;;;5046272;28;20060;-61
2024/02/10 09:50:13;;;;;;;1.00;0.60;;;;;;;;;;5049633;28;20056;-61
2024/02/10 09:52:47;;;;;;;1.38;0.65;;;;;;;;;;5053071;28;20431;-61
2024/02/10 09:55:14;;;;;;;2.20;0.60;;;;;;;;;;5053219;28;20053;-61
2024/02/10 09:57:46;;;;;;;1.00;0.50;;;;;;;;;;5053067;28;20086;-61
2024/02/10 10:00:15;;;;;;;1.80;1.02;;;;;;;;;;5053130;28;20488;-61
2024/02/10 10:02:46;;;;;;;1.27;0.70;;;;;;;;;;5052899;28;20061;-62
2024/02/10 10:05:12;;;;;;;1.17;0.80;;;;;;;;;;5043082;28;20057;-62
2024/02/10 10:07:41;;;;;;;1.05;0.63;;;;;;;;;;5033263;28;20060;-62
2024/02/10 10:10:08;;;;;;;2.23;0.70;;;;;;;;;;5032541;28;20053;-61
2024/02/10 10:12:35;;;;;;;1.95;0.90;;;;;;;;;;5032390;28;20061;-62
2024/02/10 10:15:02;;;;;;;1.33;0.60;;;;;;;;;;5033846;28;20056;-62
2024/02/10 10:17:35;;;;;;;1.38;0.82;;;;;;;;;;5044166;28;20049;-62
2024/02/10 10:20:05;;;;;;;2.00;0.90;;;;;;;;;;5033037;28;20049;-62
2024/02/10 10:22:34;;;;;;;1.10;0.70;;;;;;;;;;5036516;28;20053;-61
2024/02/10 10:25:03;;;;;;;1.60;0.80;;;;;;;;;;5048089;28;20053;-60
2024/02/10 10:27:30;;;;;;;1.70;0.80;;;;;;;;;;5049574;28;20049;-61
2024/02/10 10:29:57;;;;;;;1.13;0.80;;;;;;;;;;5052914;28;20057;-61
2024/02/10 10:32:27;;;;;;;1.95;1.20;;;;;;;;;;5037625;28;20404;-61
2024/02/10 10:34:55;;;;;;;1.52;0.90;;;;;;;;;;5036742;28;20057;-61
2024/02/10 10:37:23;;;;;;;1.50;0.85;;;;;;;;;;5047537;28;20512;-61
2024/02/10 10:39:51;;;;;;;2.63;0.90;;;;;;;;;;5040117;28;20053;-61
2024/02/10 10:42:20;;;;;;;1.35;0.80;;;;;;;;;;5052635;28;20049;-61
2024/02/10 10:44:50;;;;;;;1.20;0.70;;;;;;;;;;5036219;28;20056;-61
2024/02/10 10:47:22;;;;;;;1.63;0.70;;;;;;;;;;5032267;28;20515;-61
2024/02/10 10:49:50;;;;;;;1.95;0.88;;;;;;;;;;5032386;28;20049;-61
2024/02/10 10:52:20;;;;;;;1.23;0.80;;;;;;;;;;5051478;28;20419;-61
2024/02/10 10:54:48;;;;;;;1.50;0.70;;;;;;;;;;5052467;28;20053;-61
2024/02/10 10:57:18;;;;;;;0.98;0.60;;;;;;;;;;5051937;28;20052;-61
2024/02/10 10:59:53;;;;;;;1.42;0.73;;;;;;;;;;5052441;28;20423;-61
2024/02/10 11:02:21;;;;;;;1.30;0.70;;;;;;;;;;5048075;28;20381;-61
2024/02/10 11:04:49;;;;;;;1.40;0.73;;;;;;;;;;5032515;28;20053;-61
2024/02/10 11:07:17;;;;;;;1.23;0.70;;;;;;;;;;5032428;28;20050;-61
2024/02/10 11:09:44;;;;;;;1.00;0.60;;;;;;;;;;5032364;28;20057;-61
2024/02/10 11:12:11;;;;;;;2.20;0.73;;;;;;;;;;5032286;28;20493;-61
2024/02/10 11:14:51;;;;;;;1.42;0.77;;;;;;;;;;5043228;28;20495;-62
2024/02/10 11:17:18;;;;;;;1.85;1.10;;;;;;;;;;5050020;28;20056;-62
2024/02/10 11:19:58;;;;;;;1.35;0.70;;;;;;;;;;5034475;28;20053;-62
2024/02/10 11:22:26;;;;;;;1.67;0.63;;;;;;;;;;5034591;28;20054;-61
2024/02/10 11:24:54;;;;;;;1.30;0.63;;;;;;;;;;5036476;28;20137;-61
2024/02/10 11:27:25;;;;;;;1.33;0.70;;;;;;;;;;5042631;28;20064;-61
2024/02/10 11:29:58;;;;;;;1.50;0.80;;;;;;;;;;5046678;28;20491;-61
2024/02/10 11:32:25;;;;;;;1.98;0.88;;;;;;;;;;5041432;28;20056;-62
2024/02/10 11:34:52;;;;;;;1.20;0.70;;;;;;;;;;5039658;28;20053;-62
2024/02/10 11:37:19;;;;;;;1.40;0.90;;;;;;;;;;5039873;28;20404;-62
2024/02/10 11:39:46;;;;;;;1.17;0.70;;;;;;;;;;5052100;28;20139;-61
2024/02/10 11:42:16;;;;;;;1.42;0.70;;;;;;;;;;5051609;28;20396;-61
2024/02/10 11:44:43;;;;;;;1.40;0.70;;;;;;;;;;5035828;28;20057;-61
2024/02/10 11:47:12;;;;;;;1.23;0.70;;;;;;;;;;5035375;28;20053;-61
2024/02/10 11:49:39;;;;;;;1.65;0.73;;;;;;;;;;5045529;28;20049;-62
2024/02/10 11:52:07;;;;;;;1.95;0.70;;;;;;;;;;5043063;28;20413;-62
2024/02/10 11:54:36;;;;;;;2.13;0.80;;;;;;;;;;5047567;28;20375;-61
2024/02/10 11:57:04;;;;;;;1.42;0.90;;;;;;;;;;5043724;28;20045;-61
2024/02/10 11:59:32;;;;;;;1.00;0.60;;;;;;;;;;5035264;28;20506;-61
2024/02/10 12:02:00;;;;;;;1.50;0.70;;;;;;;;;;5049673;28;20053;-61
2024/02/10 12:04:28;;;;;;;1.90;0.80;;;;;;;;;;5052257;28;20080;-62
2024/02/10 12:06:55;;;;;;;1.33;0.80;;;;;;;;;;5050276;28;20044;-61
2024/02/10 12:09:22;;;;;;;1.85;0.90;;;;;;;;;;5039496;28;20484;-62
2024/02/10 12:11:56;;;;;;;1.38;0.80;;;;;;;;;;5035836;28;20504;-62
2024/02/10 12:14:23;;;;;;;1.88;0.80;;;;;;;;;;5042375;28;20060;-62
2024/02/10 12:16:53;;;;;;;2.13;0.73;;;;;;;;;;5040736;28;20083;-63
2024/02/10 12:19:21;;;;;;;1.73;0.77;;;;;;;;;;5050213;28;20060;-62
2024/02/10 12:21:51;;;;;;;1.45;0.90;;;;;;;;;;5053484;28;20068;-62
2024/02/10 12:24:21;;;;;;;1.30;0.70;;;;;;;;;;5037956;28;20049;-61
2024/02/10 12:26:48;;;;;;;1.20;0.70;;;;;;;;;;5054423;28;20049;-61
2024/02/10 12:29:15;;;;;;;1.10;0.70;;;;;;;;;;5054313;28;20076;-61
2024/02/10 12:31:42;;;;;;;1.38;0.70;;;;;;;;;;5054609;28;20384;-62
2024/02/10 12:34:10;;;;;;;1.65;0.80;;;;;;;;;;5054437;28;20067;-62
2024/02/10 12:36:37;;;;;;;1.00;0.70;;;;;;;;;;5053873;28;20067;-62
2024/02/10 12:39:06;;;;;;;1.20;0.70;;;;;;;;;;5053900;28;20057;-62
2024/02/10 12:41:32;;;;;;;1.30;0.60;;;;;;;;;;5053644;28;20499;-61
2024/02/10 12:43:59;;;;;;;1.48;0.70;;;;;;;;;;5054466;28;20053;-62
2024/02/10 12:46:27;;;;;;;1.55;0.73;;;;;;;;;;5053927;28;20060;-61
2024/02/10 12:48:55;;;;;;;1.17;0.70;;;;;;;;;;5054299;28;20496;-62
2024/02/10 12:51:24;;;;;;;1.13;0.60;;;;;;;;;;5054363;28;20068;-62
2024/02/10 12:53:54;;;;;;;1.33;0.60;;;;;;;;;;5037073;28;20058;-62
2024/02/10 12:56:24;;;;;;;1.20;0.73;;;;;;;;;;5034322;28;20061;-62
2024/02/10 12:58:51;;;;;;;1.40;0.70;;;;;;;;;;5034301;28;20412;-62
2024/02/10 13:01:18;;;;;;;1.30;0.77;;;;;;;;;;5034449;28;20058;-62
2024/02/10 13:03:45;;;;;;;1.00;0.63;;;;;;;;;;5034194;28;20057;-62
2024/02/10 13:06:12;;;;;;;1.40;0.95;;;;;;;;;;5034155;28;20053;-62
2024/02/10 13:08:38;;;;;;;1.13;0.52;;;;;;;;;;5038610;28;20045;-62
2024/02/10 13:11:06;;;;;;;1.77;0.73;;;;;;;;;;5053454;28;20053;-63
2024/02/10 13:13:34;;;;;;;1.42;0.68;;;;;;;;;;5053460;28;20053;-62
2024/02/10 13:16:00;;;;;;;1.30;0.70;;;;;;;;;;5053588;28;20076;-62
2024/02/10 13:18:27;;;;;;;1.40;0.68;;;;;;;;;;5053443;28;20057;-61
2024/02/10 13:20:54;;;;;;;1.65;0.80;;;;;;;;;;5037918;28;20060;-62
2024/02/10 13:23:21;;;;;;;2.00;0.90;;;;;;;;;;5040313;28;20048;-61
2024/02/10 13:25:49;;;;;;;1.50;0.80;;;;;;;;;;5034182;28;20050;-61
2024/02/10 13:28:16;;;;;;;1.30;0.67;;;;;;;;;;5033509;28;20052;-62
2024/02/10 13:30:45;;;;;;;1.08;0.70;;;;;;;;;;5034251;28;20057;-60
2024/02/10 13:33:12;;;;;;;1.20;0.60;;;;;;;;;;5043025;28;20080;-61
2024/02/10 13:35:40;;;;;;;1.55;0.82;;;;;;;;;;5041104;28;20045;-61
2024/02/10 14:00:23;;;;;;;1.30;0.60;;;;;;;;;;5035947;28;20045;-61
2024/02/10 14:03:01;;;;;;;3.45;0.80;;;;;;;;;;5032588;28;20080;-60
2024/02/10 14:05:41;;;;;;;1.75;0.80;;;;;;;;;;5043187;28;20056;-60
2024/02/10 14:10:55;;;;;;;1.27;0.60;;;;;;;;;;5034214;28;20053;-60
2024/02/10 14:13:23;;;;;;;1.00;0.68;;;;;;;;;;5038436;28;20053;-61
2024/02/10 14:15:54;;;;;;;1.30;0.70;;;;;;;;;;5037591;28;20407;-61
2024/02/10 14:18:25;;;;;;;1.98;0.70;;;;;;;;;;5040912;28;20045;-60
2024/02/10 14:46:42;;;;;;;2.70;1.30;;;;;;;;;;5065254;28;20041;-60
2024/02/10 14:49:09;;;;;;;2.33;0.90;;;;;;;;;;5069308;28;20057;-61
2024/02/10 14:51:36;;;;;;;2.08;0.90;;;;;;;;;;5067803;28;20049;-61
2024/02/10 14:54:03;;;;;;;4.57;1.50;;;;;;;;;;5067317;28;20059;-61
2024/02/10 14:56:31;;;;;;;75.43;30.90;;;;;;;;;;5071713;28;20079;-61
2024/02/10 14:58:59;;;;;;;37.17;17.10;;;;;;;;;;5065378;28;20052;-61
2024/02/10 15:01:30;;;;;;;45.33;19.13;;;;;;;;;;5071491;28;20474;-60
2024/02/10 15:04:02;;;;;;;34.80;16.58;;;;;;;;;;5069756;28;20057;-61
2024/02/10 15:06:33;;;;;;;14.65;5.75;;;;;;;;;;5074903;28;20049;-60
2024/02/10 15:09:02;;;;;;;4.60;2.00;;;;;;;;;;5070180;28;20045;-61
2024/02/10 15:11:29;;;;;;;2.60;1.00;;;;;;;;;;5062855;28;20056;-60
2024/02/10 15:13:55;;;;;;;2.53;0.82;;;;;;;;;;5067935;28;20052;-60
2024/02/10 15:16:23;;;;;;;1.58;0.70;;;;;;;;;;5066564;28;20478;-60
2024/02/10 15:18:51;;;;;;;2.15;0.80;;;;;;;;;;5075014;28;20052;-61
2024/02/10 15:21:19;;;;;;;2.30;0.98;;;;;;;;;;5074173;28;20064;-61
2024/02/10 15:23:46;;;;;;;3.47;1.00;;;;;;;;;;5075079;28;20052;-61
2024/02/10 15:26:13;;;;;;;1.38;0.88;;;;;;;;;;5075464;28;20057;-60
2024/02/10 15:28:40;;;;;;;1.40;0.80;;;;;;;;;;5074991;28;20040;-60
2024/02/10 15:31:07;;;;;;;2.50;1.00;;;;;;;;;;5075069;28;20049;-61
2024/02/10 15:33:34;;;;;;;3.88;1.42;;;;;;;;;;5073653;28;20422;-60
2024/02/10 15:36:01;;;;;;;3.38;1.70;;;;;;;;;;5074436;28;20048;-60
2024/02/10 15:38:29;;;;;;;6.80;2.20;;;;;;;;;;5071127;28;20048;-61